Latest Coastal Weather Observations for Rowley Shoals

IDW60701

Issued at 7:32 pm WST Friday 1 July 2016 (issued every 10 minutes, with the page automatically refreshed every 10 minutes)

About coastal observations | Map of coastal stations | Coastal observations for WA | Marine services | Other Formats
Station Details ID: 200713 Name: ROWLEY SHOALS Lat: -17.52 Lon: 118.95 Height: 0.0 m
Data from the previous 72 hours. | See also: Recent months at Rowley Shoals
Date/Time
WST
Temp
°C
Wind Pressure Rain since
9am
mm
Weather Cloud Vis
km
Sea
Height
m
Swell
Dir  Spd
kts
Gust
kts
hPa Trend Height
m
Period
s
Dir
01/07:30pm 27.0 E 13 15 1014.6 - - - - - - - - -
01/07:00pm 27.1 ESE 14 16 1014.7 - - - - - - - - -
01/06:30pm 27.0 ESE 14 16 1014.1 - - - - - - - - -
01/06:00pm 27.0 ESE 15 17 1013.7 - - - - - - - - -
01/05:30pm 26.9 ESE 15 17 1013.4 - - - - - - - - -
01/05:00pm 27.1 ESE 14 16 1013.4 - - - - - - - - -
01/04:30pm 27.2 ESE 14 16 1012.9 - - - - - - - - -
01/04:00pm 27.1 ESE 14 16 1013.0 - - - - - - - - -
01/03:30pm 27.3 ESE 14 16 1012.9 - - - - - - - - -
01/03:00pm 27.4 ESE 14 17 1012.8 - - - - - - - - -
01/02:30pm 27.3 ESE 14 16 1013.0 - - - - - - - - -
01/02:00pm 27.3 ESE 15 17 1013.0 - - - - - - - - -
01/01:30pm 27.1 ESE 15 18 1013.1 - - - - - - - - -
01/01:00pm 27.2 ESE 15 17 1013.4 - - - - - - - - -
01/12:30pm 27.3 ESE 15 17 1014.0 - - - - - - - - -
01/12:00pm 27.5 ESE 14 17 1014.5 - - - - - - - - -
01/11:30am 27.4 ESE 14 17 1014.9 - - - - - - - - -
01/11:00am 27.2 ESE 15 17 1014.9 - - - - - - - - -
01/10:30am 27.0 ESE 15 17 1015.1 - - - - - - - - -
01/10:00am 27.0 ESE 16 18 1015.3 - - - - - - - - -
01/09:30am 27.2 ESE 16 19 1015.6 - - - - - - - - -
01/09:00am 27.2 ESE 15 17 1015.7 - - - - - - - - -
01/08:30am 27.2 ESE 13 15 1015.4 - - - - - - - - -
01/08:00am 27.3 ESE 12 15 1015.2 - - - - - - - - -
01/07:30am 27.2 SE 11 14 1014.8 - - - - - - - - -
01/07:00am 27.1 SE 11 13 1014.8 - - - - - - - - -
01/06:30am 27.0 SE 11 13 1014.3 - - - - - - - - -
01/06:00am 26.9 SSE 13 15 1014.0 - - - - - - - - -
01/05:30am 27.0 SE 14 16 1013.7 - - - - - - - - -
01/05:00am 27.0 SSE 11 13 1013.8 - - - - - - - - -
01/04:30am 26.8 SSE 11 12 1013.9 - - - - - - - - -
01/04:00am 26.8 SE 11 12 1013.8 - - - - - - - - -
01/03:30am 26.7 SE 10 11 1013.7 - - - - - - - - -
01/03:00am 26.8 SSE 9 10 1014.0 - - - - - - - - -
01/02:30am 26.8 SE 6 7 1014.2 - - - - - - - - -
01/02:00am 26.8 SE 4 5 1014.2 - - - - - - - - -
01/01:30am 26.8 SE 3 3 1014.8 - - - - - - - - -
01/01:00am 26.9 SSE 3 4 1015.1 - - - - - - - - -
01/12:30am 27.0 SSE 4 5 1015.4 - - - - - - - - -
01/12:00am 27.2 SE 4 6 1015.5 - - - - - - - - -
 
Date/Time
WST
Temp
°C
Wind Pressure Rain since
9am
mm
Weather Cloud Vis
km
Sea
Height
m
Swell
Dir  Spd
kts
Gust
kts
hPa Trend Height
m
Period
s
Dir
30/11:30pm 27.3 ESE 5 6 1015.5 - - - - - - - - -
30/11:00pm 27.3 ESE 5 6 1015.8 - - - - - - - - -
30/10:30pm 27.3 E 6 7 1015.9 - - - - - - - - -
30/10:00pm 27.4 E 5 6 1016.0 - - - - - - - - -
30/09:30pm 27.4 ESE 6 6 1016.1 - - - - - - - - -
30/09:00pm 27.3 ESE 6 8 1016.1 - - - - - - - - -
30/08:30pm 27.4 ESE 7 8 1015.8 - - - - - - - - -
30/08:00pm 27.4 E 6 8 1015.6 - - - - - - - - -
30/07:30pm 27.5 E 6 7 1015.3 - - - - - - - - -
30/07:00pm 27.4 E 7 8 1015.0 - - - - - - - - -
30/06:30pm 27.5 ENE 8 9 1014.4 - - - - - - - - -
30/06:00pm 27.6 ENE 8 9 1014.2 - - - - - - - - -
30/05:30pm 27.5 ENE 8 9 1013.7 - - - - - - - - -
30/05:00pm 27.6 ENE 8 9 1013.5 - - - - - - - - -
30/04:30pm 27.6 E 9 10 1013.0 - - - - - - - - -
30/04:00pm 27.5 E 10 11 1012.8 - - - - - - - - -
30/03:30pm 27.6 E 9 11 1012.7 - - - - - - - - -
30/03:00pm 27.9 E 8 10 1012.6 - - - - - - - - -
30/02:30pm 27.8 ENE 9 11 1012.5 - - - - - - - - -
30/02:00pm 27.8 ENE 9 10 1012.7 - - - - - - - - -
30/01:30pm 27.8 ENE 9 11 1013.1 - - - - - - - - -
30/01:00pm 27.9 ENE 10 12 1013.4 - - - - - - - - -
30/12:30pm 27.7 ENE 9 11 1013.9 - - - - - - - - -
30/12:00pm 27.7 ENE 9 11 1014.2 - - - - - - - - -
30/11:30am 27.6 ENE 9 11 1014.6 - - - - - - - - -
30/11:00am 27.8 ENE 9 11 1014.9 - - - - - - - - -
30/10:30am 27.7 ENE 8 9 1015.4 - - - - - - - - -
30/10:00am 27.6 ENE 9 10 1015.5 - - - - - - - - -
30/09:30am 27.7 ENE 9 11 1015.6 - - - - - - - - -
30/09:00am 27.5 ENE 9 11 1015.7 - - - - - - - - -
30/08:30am 27.7 ENE 10 11 1015.6 - - - - - - - - -
30/08:00am 27.6 ENE 11 13 1015.3 - - - - - - - - -
30/07:30am 27.6 ENE 10 11 1014.9 - - - - - - - - -
30/07:00am 27.4 ENE 10 13 1014.7 - - - - - - - - -
30/06:30am 27.4 ENE 11 13 1014.4 - - - - - - - - -
30/06:00am 27.3 NE 11 13 1014.2 - - - - - - - - -
30/05:30am 27.4 ENE 11 13 1014.1 - - - - - - - - -
30/05:00am 27.3 ENE 11 13 1013.8 - - - - - - - - -
30/04:30am 27.4 ENE 11 13 1013.9 - - - - - - - - -
30/04:00am 27.3 ENE 11 13 1013.7 - - - - - - - - -
30/03:30am 27.4 ENE 10 12 1013.7 - - - - - - - - -
30/03:00am 27.4 ENE 10 11 1013.6 - - - - - - - - -
30/02:30am 27.5 ENE 11 13 1014.0 - - - - - - - - -
30/02:00am 27.6 ENE 11 13 1014.3 - - - - - - - - -
30/01:30am 27.5 ENE 11 13 1014.8 - - - - - - - - -
30/01:00am 27.6 ENE 11 12 1015.1 - - - - - - - - -
30/12:30am 27.6 E 11 13 1015.4 - - - - - - - - -
30/12:00am 27.5 E 11 13 1015.7 - - - - - - - - -
 
Date/Time
WST
Temp
°C
Wind Pressure Rain since
9am
mm
Weather Cloud Vis
km
Sea
Height
m
Swell
Dir  Spd
kts
Gust
kts
hPa Trend Height
m
Period
s
Dir
29/11:30pm 27.8 E 12 13 1016.1 - - - - - - - - -
29/11:00pm 27.7 E 11 12 1016.4 - - - - - - - - -
29/10:30pm 27.9 E 11 13 1016.6 - - - - - - - - -
29/10:00pm 27.8 E 12 14 1016.5 - - - - - - - - -
29/09:30pm 27.7 E 13 14 1016.4 - - - - - - - - -
29/09:00pm 27.8 E 13 14 1016.2 - - - - - - - - -
29/08:30pm 27.8 E 13 15 1016.0 - - - - - - - - -
29/08:00pm 27.8 E 13 16 1015.7 - - - - - - - - -
29/07:30pm 27.9 E 13 16 1015.6 - - - - - - - - -
29/07:00pm 27.7 E 14 15 1015.3 - - - - - - - - -
29/06:30pm 27.9 E 13 15 1014.7 - - - - - - - - -
29/06:00pm 27.8 E 12 14 1014.7 - - - - - - - - -
29/05:30pm 27.8 ESE 13 15 1014.5 - - - - - - - - -
29/05:00pm 27.7 ESE 13 15 1014.4 - - - - - - - - -
29/04:30pm 27.7 ESE 13 15 1013.8 - - - - - - - - -
29/04:00pm 27.7 ESE 13 15 1013.6 - - - - - - - - -
29/03:30pm 27.7 ESE 12 14 1013.5 - - - - - - - - -
29/03:00pm 27.6 ESE 13 14 1013.3 - - - - - - - - -
29/02:30pm 27.7 E 12 14 1013.4 - - - - - - - - -
29/02:00pm 27.6 ESE 12 14 1013.5 - - - - - - - - -
29/01:30pm 27.7 ESE 12 14 1013.8 - - - - - - - - -
29/01:00pm 27.7 ESE 13 15 1014.0 - - - - - - - - -
29/12:30pm 27.7 ESE 13 16 1014.4 - - - - - - - - -
29/12:00pm 27.5 ESE 14 16 1014.7 - - - - - - - - -
29/11:30am 27.5 ESE 13 16 1015.2 - - - - - - - - -
29/11:00am 27.4 ESE 15 17 1015.4 - - - - - - - - -
29/10:30am 27.2 SE 13 15 1015.7 - - - - - - - - -
29/10:00am 27.4 ESE 11 13 1015.7 - - - - - - - - -
29/09:30am 27.7 ESE 10 11 1015.6 - - - - - - - - -
29/09:00am 27.6 ESE 9 11 1015.5 - - - - - - - - -
29/08:30am 27.5 ESE 10 11 1015.5 - - - - - - - - -
29/08:00am 27.3 ESE 10 12 1015.2 - - - - - - - - -
29/07:30am 27.1 ESE 10 11 1014.9 - - - - - - - - -
29/07:00am 26.9 ESE 9 10 1014.8 - - - - - - - - -
29/06:30am 26.9 E 10 11 1014.3 - - - - - - - - -
29/06:00am 26.8 ESE 10 11 1014.1 - - - - - - - - -
29/05:30am 26.8 ESE 10 11 1013.8 - - - - - - - - -
29/05:00am 26.7 SE 11 11 1013.6 - - - - - - - - -
29/04:30am 26.6 SE 10 12 1013.6 - - - - - - - - -
29/04:00am 26.8 SE 10 12 1013.8 - - - - - - - - -
29/03:30am 26.5 SE 10 11 1014.0 - - - - - - - - -
29/03:00am 26.6 SE 9 11 1014.1 - - - - - - - - -
29/02:30am 26.4 SE 10 11 1014.4 - - - - - - - - -
29/02:00am 26.3 SE 9 10 1014.7 - - - - - - - - -
29/01:30am 26.2 SE 9 11 1015.2 - - - - - - - - -
29/01:00am 26.2 SE 10 11 1015.3 - - - - - - - - -
29/12:30am 26.0 SE 11 13 1015.4 - - - - - - - - -
29/12:00am 26.0 SE 11 13 1015.5 - - - - - - - - -
 
Date/Time
WST
Temp
°C
Wind Pressure Rain since
9am
mm
Weather Cloud Vis
km
Sea
Height
m
Swell
Dir  Spd
kts
Gust
kts
hPa Trend Height
m
Period
s
Dir
28/11:30pm 26.0 SE 10 12 1015.6 - - - - - - - - -
28/11:00pm 25.8 SE 11 13 1015.7 - - - - - - - - -
28/10:30pm 25.8 SE 12 13 1015.7 - - - - - - - - -
28/10:00pm 25.7 SE 12 14 1015.8 - - - - - - - - -
28/09:30pm 25.6 SE 12 15 1015.9 - - - - - - - - -
28/09:00pm 25.6 SE 13 15 1015.9 - - - - - - - - -
28/08:30pm 25.5 SE 13 15 1015.9 - - - - - - - - -
28/08:00pm 25.5 SE 14 17 1015.8 - - - - - - - - -

Other Formats:

Comma delimited format used in spreadsheet applications
http://www.bom.gov.au/fwo/IDW60701/IDW60701.94207.axf

JavaScript Object Notation format (JSON) in row-major order
http://www.bom.gov.au/fwo/IDW60701/IDW60701.94207.json